Hannover, Germany

1:03 AM CET on December 09, 2016 (GMT +0100)
Hannover | | Change Station

Elev 180 ft 52.47 °N, 9.68 °E | Updated 13 minutes ago

Mostly Cloudy
Mostly Cloudy
45 °F
Feels Like 39 °F
N
10
Wind Variable Wind from WSW
Gusts 23 mph

Today
High -- | Low -- °F
--% Chance of Precip.
Yesterday
High -- | Low -- °F
Precip. -- in
Pressure 30.27 in
Visibility 6.2 miles
Clouds Mostly Cloudy 1200 ft
Windchill 39 °F
Dew Point 41 °F
Humidity 87%
Rainfall 0.00 in
Snow Depth Not available.
8:19 AM 4:07 PM
Waxing Gibbous, 68% visible
METAR EDDV 082350Z 25009G20KT 220V290 9999 BKN012 07/05 Q1025
Pressure 30.27 in
Visibility 6.2 miles
Clouds Mostly Cloudy 1200 ft
Windchill 39 °F
Dew Point 41 °F
Humidity 87%
Rainfall 0.00 in
Snow Depth Not available.
8:19 AM 4:07 PM
Waxing Gibbous, 68% visible
METAR EDDV 082350Z 25009G20KT 220V290 9999 BKN012 07/05 Q1025

10-Day Weather Forecast

×

Almanac

Astronomy

Dec. 09, 2016 Rise Set
Actual Time
Civil Twilight
Nautical Twilight
Astronomical Twilight
Moon
Length of Visible Light
Length of Day
Tomorrow will be .
, % of the Moon is Illuminated

Today's Extremes

Country Highs Country Lows

Community

WunderPhotos

Upload Photos

1,956,277 photos uploaded!

WunderBlog® & News

Nearby

Air Quality

  Air Quality AQ Index Pollutant
Not available.

Snow Depth

Station Depth Elevation

Earthquake Activity

City Distance Mag. Time & Date
Minimum magnitude displayed is 2.5.

Coastal Water Temperatures

Place Temperature

Stations

Nearby Weather Stations

Station Location Temp. Windchill Dew Point Humidity Wind Precip. Elev Updated Type